Aviation Digital Data Service (ADDS)

Output produced by METARs form (1201 UTC 19 January 2019)
found at http://www.aviationweather.gov/metar/data/
 
METAR text: PTSA 182250Z COR 05018KT 10SM SCT020 SCT130 OVC300 30/23 A2981 RMK LAST
Conditions at: PTSA (KOSRAE ISLAND , FM) observed 2250 UTC 18 January 2019
Temperature: 30.0°C (86°F)
Dewpoint: 23.0°C (73°F) [RH = 66%]
Pressure (altimeter): 29.81 inches Hg (1009.6 mb)
Winds: from the NE (50 degrees) at 21 MPH (18 knots; 9.3 m/s)
Visibility: 10 or more miles (16+ km)
Ceiling: 30000 feet AGL
Clouds: scattered clouds at 2000 feet AGL
scattered clouds at 13000 feet AGL
overcast cloud deck at 30000 feet AGL
Weather: no significant weather observed at this time

METAR text: PTSA 182155Z 05013KT 10SM SCT019 BKN130 OVC300 29/24 A2982 RMK FIRST
Conditions at: PTSA (KOSRAE ISLAND , FM) observed 2155 UTC 18 January 2019
Temperature: 29.0°C (84°F)
Dewpoint: 24.0°C (75°F) [RH = 74%]
Pressure (altimeter): 29.82 inches Hg (1009.9 mb)
Winds: from the NE (50 degrees) at 15 MPH (13 knots; 6.7 m/s)
Visibility: 10 or more miles (16+ km)
Ceiling: 13000 feet AGL
Clouds: scattered clouds at 1900 feet AGL
broken clouds at 13000 feet AGL
overcast cloud deck at 30000 feet AGL
Weather: no significant weather observed at this time

METAR text: PTSA 181050Z 06013KT 10SM SCT016 BKN130 BKN300 29/25 A2978 RMK LAST
Conditions at: PTSA (KOSRAE ISLAND , FM) observed 1050 UTC 18 January 2019
Temperature: 29.0°C (84°F)
Dewpoint: 25.0°C (77°F) [RH = 79%]
Pressure (altimeter): 29.78 inches Hg (1008.5 mb)
Winds: from the ENE (60 degrees) at 15 MPH (13 knots; 6.7 m/s)
Visibility: 10 or more miles (16+ km)
Ceiling: 13000 feet AGL
Clouds: scattered clouds at 1600 feet AGL
broken clouds at 13000 feet AGL
broken clouds at 30000 feet AGL
Weather: no significant weather observed at this time

METAR text: PTSA 180950Z 06020KT 10SM SCT016 BKN130 BKN300 29/25 A2978
Conditions at: PTSA (KOSRAE ISLAND , FM) observed 0950 UTC 18 January 2019
Temperature: 29.0°C (84°F)
Dewpoint: 25.0°C (77°F) [RH = 79%]
Pressure (altimeter): 29.78 inches Hg (1008.5 mb)
Winds: from the ENE (60 degrees) at 23 MPH (20 knots; 10.3 m/s)
Visibility: 10 or more miles (16+ km)
Ceiling: 13000 feet AGL
Clouds: scattered clouds at 1600 feet AGL
broken clouds at 13000 feet AGL
broken clouds at 30000 feet AGL
Weather: no significant weather observed at this time

METAR text: PTSA 180850Z 08009KT 10SM SCT016 BKN130 OVC300 27/24 A2975
Conditions at: PTSA (KOSRAE ISLAND , FM) observed 0850 UTC 18 January 2019
Temperature: 27.0°C (81°F)
Dewpoint: 24.0°C (75°F) [RH = 84%]
Pressure (altimeter): 29.75 inches Hg (1007.5 mb)
Winds: from the E (80 degrees) at 10 MPH (9 knots; 4.6 m/s)
Visibility: 10 or more miles (16+ km)
Ceiling: 13000 feet AGL
Clouds: scattered clouds at 1600 feet AGL
broken clouds at 13000 feet AGL
overcast cloud deck at 30000 feet AGL
Weather: no significant weather observed at this time

METAR text: PTSA 180750Z 03015KT 10SM SCT017 BKN130 OVC300 28/25 A2974
Conditions at: PTSA (KOSRAE ISLAND , FM) observed 0750 UTC 18 January 2019
Temperature: 28.0°C (82°F)
Dewpoint: 25.0°C (77°F) [RH = 84%]
Pressure (altimeter): 29.74 inches Hg (1007.2 mb)
Winds: from the NNE (30 degrees) at 17 MPH (15 knots; 7.7 m/s)
Visibility: 10 or more miles (16+ km)
Ceiling: 13000 feet AGL
Clouds: scattered clouds at 1700 feet AGL
broken clouds at 13000 feet AGL
overcast cloud deck at 30000 feet AGL
Weather: no significant weather observed at this time

METAR text: PTSA 180650Z 06017KT 10SM BKN018TCU BKN130 OVC300 29/24 A2973 RMK TCU SE
Conditions at: PTSA (KOSRAE ISLAND , FM) observed 0650 UTC 18 January 2019
Temperature: 29.0°C (84°F)
Dewpoint: 24.0°C (75°F) [RH = 74%]
Pressure (altimeter): 29.73 inches Hg (1006.9 mb)
Winds: from the ENE (60 degrees) at 20 MPH (17 knots; 8.7 m/s)
Visibility: 10 or more miles (16+ km)
Ceiling: 1800 feet AGL
Clouds: broken clouds at 1800 feet AGL
broken clouds at 13000 feet AGL
overcast cloud deck at 30000 feet AGL
Weather: no significant weather observed at this time

METAR text: PTSA 180550Z 06017KT 10SM SCT020 OVC300 30/24 A2970
Conditions at: PTSA (KOSRAE ISLAND , FM) observed 0550 UTC 18 January 2019
Temperature: 30.0°C (86°F)
Dewpoint: 24.0°C (75°F) [RH = 70%]
Pressure (altimeter): 29.70 inches Hg (1005.8 mb)
Winds: from the ENE (60 degrees) at 20 MPH (17 knots; 8.7 m/s)
Visibility: 10 or more miles (16+ km)
Ceiling: 30000 feet AGL
Clouds: scattered clouds at 2000 feet AGL
overcast cloud deck at 30000 feet AGL
Weather: no significant weather observed at this time

METAR text: PTSA 180450Z 08008KT 10SM BKN021 BKN130 OVC300 30/24 A2970
Conditions at: PTSA (KOSRAE ISLAND , FM) observed 0450 UTC 18 January 2019
Temperature: 30.0°C (86°F)
Dewpoint: 24.0°C (75°F) [RH = 70%]
Pressure (altimeter): 29.70 inches Hg (1005.8 mb)
Winds: from the E (80 degrees) at 9 MPH (8 knots; 4.1 m/s)
Visibility: 10 or more miles (16+ km)
Ceiling: 2100 feet AGL
Clouds: broken clouds at 2100 feet AGL
broken clouds at 13000 feet AGL
overcast cloud deck at 30000 feet AGL
Weather: no significant weather observed at this time

METAR text: PTSA 180350Z 09009KT 10SM SCT021 BKN130 OVC300 30/24 A2970
Conditions at: PTSA (KOSRAE ISLAND , FM) observed 0350 UTC 18 January 2019
Temperature: 30.0°C (86°F)
Dewpoint: 24.0°C (75°F) [RH = 70%]
Pressure (altimeter): 29.70 inches Hg (1005.8 mb)
Winds: from the E (90 degrees) at 10 MPH (9 knots; 4.6 m/s)
Visibility: 10 or more miles (16+ km)
Ceiling: 13000 feet AGL
Clouds: scattered clouds at 2100 feet AGL
broken clouds at 13000 feet AGL
overcast cloud deck at 30000 feet AGL
Weather: no significant weather observed at this time

METAR text: PTSA 180250Z 10010KT 10SM SCT022 BKN130 OVC300 31/24 A2972
Conditions at: PTSA (KOSRAE ISLAND , FM) observed 0250 UTC 18 January 2019
Temperature: 31.0°C (88°F)
Dewpoint: 24.0°C (75°F) [RH = 66%]
Pressure (altimeter): 29.72 inches Hg (1006.5 mb)
Winds: from the E (100 degrees) at 12 MPH (10 knots; 5.1 m/s)
Visibility: 10 or more miles (16+ km)
Ceiling: 13000 feet AGL
Clouds: scattered clouds at 2200 feet AGL
broken clouds at 13000 feet AGL
overcast cloud deck at 30000 feet AGL
Weather: no significant weather observed at this time

METAR text: PTSA 1180220Z 06016KT 10SM SCT022 SCT130 OVC300 31/24 A2973
Conditions at: PTSA (KOSRAE ISLAND , FM) observed 0220 UTC 18 January 2019
Temperature: 31.0°C (88°F)
Dewpoint: 24.0°C (75°F) [RH = 66%]
Pressure (altimeter): 29.73 inches Hg (1006.9 mb)
Winds: from the E (106 degrees) at 18 MPH (16 knots; 8.2 m/s)
Visibility: 10 or more miles (16+ km)
Ceiling: 30000 feet AGL
Clouds: scattered clouds at 2200 feet AGL
scattered clouds at 13000 feet AGL
overcast cloud deck at 30000 feet AGL
Weather: no significant weather observed at this time